Banner Elk, North Carolina
Current Conditions -  °F | °C
As of 11:35 PM on Monday 20 Oct 2014 (Local Time) from KTNB Reporting Station
Clear Clear  
Wind Chill: 49°   Ceiling: Unl
Heat Index: 49°   Visibility: 10mi
Dew Point: 45°   Wind: 3mph
Humidity: 84%   Direction: 310°NW
Pressure: 30.03"   Gusts: NA
Location:  36.16°N, 81.87°W
Report Text: KTNB 210335Z AUTO 31003KT 10SM CLR 10/07 A3003 RMK AO2 T00960070
Loading
Personal Weather Stations






























Interactive Weather Map
Tropical Storm Tracking
New forecast layout! Learn more

10-Day Weather Forecast

Advertisements
Track Severe Weather on mobile